sensor_id;sensor_type;location;lat;lon;timestamp;pressure;altitude;pressure_sealevel;temperature;humidity
79703;BME280;69172;52.352;5.006;2023-12-07T00:01:52;102029.66;;;0.99;100.00
79703;BME280;69172;52.352;5.006;2023-12-07T00:04:17;102033.81;;;0.98;100.00
79703;BME280;69172;52.352;5.006;2023-12-07T00:06:42;102035.13;;;0.95;100.00
79703;BME280;69172;52.352;5.006;2023-12-07T00:09:08;102030.44;;;0.91;100.00
79703;BME280;69172;52.352;5.006;2023-12-07T00:11:33;102032.75;;;0.96;100.00
79703;BME280;69172;52.352;5.006;2023-12-07T00:13:58;102028.25;;;0.94;100.00
79703;BME280;69172;52.352;5.006;2023-12-07T00:16:23;102031.69;;;0.94;100.00
79703;BME280;69172;52.352;5.006;2023-12-07T00:18:50;102032.03;;;0.97;100.00
79703;BME280;69172;52.352;5.006;2023-12-07T00:21:15;102018.28;;;0.95;100.00
79703;BME280;69172;52.352;5.006;2023-12-07T00:23:41;102018.84;;;0.93;100.00
79703;BME280;69172;52.352;5.006;2023-12-07T00:26:06;102019.38;;;0.90;100.00
79703;BME280;69172;52.352;5.006;2023-12-07T00:28:31;102019.25;;;0.89;100.00
79703;BME280;69172;52.352;5.006;2023-12-07T00:30:57;102020.31;;;0.91;100.00
79703;BME280;69172;52.352;5.006;2023-12-07T00:33:22;102009.09;;;0.89;100.00
79703;BME280;69172;52.352;5.006;2023-12-07T00:35:48;102014.72;;;0.86;100.00
79703;BME280;69172;52.352;5.006;2023-12-07T00:38:13;102018.28;;;0.95;100.00
79703;BME280;69172;52.352;5.006;2023-12-07T00:40:39;102011.78;;;0.97;100.00
79703;BME280;69172;52.352;5.006;2023-12-07T00:43:05;102011.22;;;1.00;100.00
79703;BME280;69172;52.352;5.006;2023-12-07T00:45:31;102013.78;;;0.93;100.00
79703;BME280;69172;52.352;5.006;2023-12-07T00:47:56;102016.09;;;0.98;100.00
79703;BME280;69172;52.352;5.006;2023-12-07T00:50:22;102012.16;;;0.93;100.00
79703;BME280;69172;52.352;5.006;2023-12-07T00:52:47;102014.72;;;0.86;100.00
79703;BME280;69172;52.352;5.006;2023-12-07T00:55:13;102020.16;;;0.82;100.00
79703;BME280;69172;52.352;5.006;2023-12-07T00:57:38;102019.81;;;0.79;100.00
79703;BME280;69172;52.352;5.006;2023-12-07T01:00:04;102022.91;;;0.77;100.00
79703;BME280;69172;52.352;5.006;2023-12-07T01:02:31;102015.88;;;0.74;100.00
79703;BME280;69172;52.352;5.006;2023-12-07T01:04:56;102024.53;;;0.76;100.00
79703;BME280;69172;52.352;5.006;2023-12-07T01:07:21;102022.56;;;0.74;100.00
79703;BME280;69172;52.352;5.006;2023-12-07T01:09:47;102022.91;;;0.77;100.00
79703;BME280;69172;52.352;5.006;2023-12-07T01:12:12;102025.22;;;0.89;100.00
79703;BME280;69172;52.352;5.006;2023-12-07T01:14:38;102018.34;;;0.88;100.00
79703;BME280;69172;52.352;5.006;2023-12-07T01:17:04;102027.75;;;0.89;100.00
79703;BME280;69172;52.352;5.006;2023-12-07T01:19:30;102026.34;;;0.84;100.00
79703;BME280;69172;52.352;5.006;2023-12-07T01:21:55;102019.09;;;0.80;100.00
79703;BME280;69172;52.352;5.006;2023-12-07T01:24:20;102024.72;;;0.78;100.00
79703;BME280;69172;52.352;5.006;2023-12-07T01:26:46;102023.31;;;0.73;100.00
79703;BME280;69172;52.352;5.006;2023-12-07T01:29:11;102022.41;;;0.72;100.00
79703;BME280;69172;52.352;5.006;2023-12-07T01:31:37;102027.59;;;0.81;100.00
79703;BME280;69172;52.352;5.006;2023-12-07T01:34:03;102023.03;;;0.85;100.00
79703;BME280;69172;52.352;5.006;2023-12-07T01:36:28;102021.78;;;0.89;100.00
79703;BME280;69172;52.352;5.006;2023-12-07T01:38:55;102031.41;;;0.84;100.00
79703;BME280;69172;52.352;5.006;2023-12-07T01:41:21;102022.34;;;0.79;100.00
79703;BME280;69172;52.352;5.006;2023-12-07T01:43:47;102025.28;;;0.75;100.00
79703;BME280;69172;52.352;5.006;2023-12-07T01:46:13;102035.22;;;0.74;100.00
79703;BME280;69172;52.352;5.006;2023-12-07T01:48:40;102026.00;;;0.74;100.00
79703;BME280;69172;52.352;5.006;2023-12-07T01:51:06;102032.88;;;0.75;100.00
79703;BME280;69172;52.352;5.006;2023-12-07T01:53:32;102031.75;;;0.80;100.00
79703;BME280;69172;52.352;5.006;2023-12-07T01:55:59;102033.59;;;0.74;100.00
79703;BME280;69172;52.352;5.006;2023-12-07T01:58:24;102036.13;;;0.74;100.00
79703;BME280;69172;52.352;5.006;2023-12-07T02:00:50;102024.94;;;0.72;100.00
79703;BME280;69172;52.352;5.006;2023-12-07T02:03:16;102026.91;;;0.75;100.00
79703;BME280;69172;52.352;5.006;2023-12-07T02:05:43;102026.00;;;0.74;100.00
79703;BME280;69172;52.352;5.006;2023-12-07T02:08:11;102031.63;;;0.72;100.00
79703;BME280;69172;52.352;5.006;2023-12-07T02:10:36;102035.97;;;0.73;100.00
79703;BME280;69172;52.352;5.006;2023-12-07T02:13:02;102030.16;;;0.74;100.00
79703;BME280;69172;52.352;5.006;2023-12-07T02:15:29;102026.91;;;0.75;100.00
79703;BME280;69172;52.352;5.006;2023-12-07T02:20:33;102015.66;;;0.80;100.00
79703;BME280;69172;52.352;5.006;2023-12-07T02:23:04;102031.41;;;0.84;100.00
79703;BME280;69172;52.352;5.006;2023-12-07T02:25:44;102019.97;;;0.88;100.00
79703;BME280;69172;52.352;5.006;2023-12-07T02:28:10;102030.63;;;0.92;100.00
79703;BME280;69172;52.352;5.006;2023-12-07T02:30:36;102021.38;;;0.93;100.00
79703;BME280;69172;52.352;5.006;2023-12-07T02:33:02;102029.66;;;0.99;100.00
79703;BME280;69172;52.352;5.006;2023-12-07T02:35:30;102022.81;;;0.98;100.00
79703;BME280;69172;52.352;5.006;2023-12-07T02:37:56;102025.09;;;1.03;100.00
79703;BME280;69172;52.352;5.006;2023-12-07T02:40:24;102023.31;;;1.02;100.00
79703;BME280;69172;52.352;5.006;2023-12-07T02:42:52;102012.84;;;0.99;100.00
79703;BME280;69172;52.352;5.006;2023-12-07T02:45:17;102016.09;;;0.98;100.00
79703;BME280;69172;52.352;5.006;2023-12-07T02:47:44;102008.50;;;0.98;100.00
79703;BME280;69172;52.352;5.006;2023-12-07T02:50:11;102010.66;;;1.02;100.00
79703;BME280;69172;52.352;5.006;2023-12-07T02:52:37;102009.91;;;1.03;100.00
79703;BME280;69172;52.352;5.006;2023-12-07T02:55:04;102019.88;;;1.02;100.00
79703;BME280;69172;52.352;5.006;2023-12-07T02:57:30;102016.44;;;1.01;100.00
79703;BME280;69172;52.352;5.006;2023-12-07T02:59:59;102012.84;;;0.99;100.00
79703;BME280;69172;52.352;5.006;2023-12-07T03:02:25;102012.28;;;1.02;100.00
79703;BME280;69172;52.352;5.006;2023-12-07T03:04:50;102012.78;;;1.06;100.00
79703;BME280;69172;52.352;5.006;2023-12-07T03:07:16;102021.84;;;1.04;100.00
79703;BME280;69172;52.352;5.006;2023-12-07T03:09:41;102019.53;;;0.99;100.00
79703;BME280;69172;52.352;5.006;2023-12-07T03:12:07;102018.63;;;0.98;100.00
79703;BME280;69172;52.352;5.006;2023-12-07T03:14:33;102028.81;;;0.91;100.00
79703;BME280;69172;52.352;5.006;2023-12-07T03:16:58;102022.50;;;0.88;100.00
79703;BME280;69172;52.352;5.006;2023-12-07T03:19:24;102027.03;;;0.83;100.00
79703;BME280;69172;52.352;5.006;2023-12-07T03:21:55;102032.66;;;0.81;100.00
79703;BME280;69172;52.352;5.006;2023-12-07T03:24:20;102030.50;;;0.77;100.00
79703;BME280;69172;52.352;5.006;2023-12-07T03:26:46;102035.63;;;0.70;100.00
79703;BME280;69172;52.352;5.006;2023-12-07T03:29:12;102027.63;;;0.74;100.00
79703;BME280;69172;52.352;5.006;2023-12-07T03:31:39;102032.88;;;0.75;100.00
79703;BME280;69172;52.352;5.006;2023-12-07T03:34:04;102022.34;;;0.79;100.00
79703;BME280;69172;52.352;5.006;2023-12-07T03:36:32;102031.19;;;0.83;100.00
79703;BME280;69172;52.352;5.006;2023-12-07T03:38:57;102035.63;;;0.99;100.00
79703;BME280;69172;52.352;5.006;2023-12-07T03:41:22;102034.50;;;1.04;100.00
79703;BME280;69172;52.352;5.006;2023-12-07T03:43:48;102036.53;;;1.00;100.00
79703;BME280;69172;52.352;5.006;2023-12-07T03:46:13;102048.28;;;0.99;100.00
79703;BME280;69172;52.352;5.006;2023-12-07T03:48:39;102037.75;;;1.03;100.00
79703;BME280;69172;52.352;5.006;2023-12-07T03:51:04;102038.09;;;1.06;100.00
79703;BME280;69172;52.352;5.006;2023-12-07T03:53:31;102044.97;;;1.07;100.00
79703;BME280;69172;52.352;5.006;2023-12-07T03:56:02;102037.22;;;1.06;100.00
79703;BME280;69172;52.352;5.006;2023-12-07T03:58:27;102026.56;;;1.01;100.00
79703;BME280;69172;52.352;5.006;2023-12-07T04:01:00;102017.75;;;0.98;100.00
79703;BME280;69172;52.352;5.006;2023-12-07T04:03:25;102018.69;;;0.91;100.00
79703;BME280;69172;52.352;5.006;2023-12-07T04:05:56;102015.66;;;0.87;100.00
79703;BME280;69172;52.352;5.006;2023-12-07T04:08:22;102009.47;;;0.85;100.00
79703;BME280;69172;52.352;5.006;2023-12-07T04:10:47;102017.97;;;0.92;100.00
79703;BME280;69172;52.352;5.006;2023-12-07T04:13:14;102014.13;;;0.96;100.00
79703;BME280;69172;52.352;5.006;2023-12-07T04:15:51;102029.50;;;0.97;100.00
79703;BME280;69172;52.352;5.006;2023-12-07T04:18:17;102015.94;;;0.97;100.00
79703;BME280;69172;52.352;5.006;2023-12-07T04:20:55;102019.88;;;1.02;100.00
79703;BME280;69172;52.352;5.006;2023-12-07T04:23:35;102020.03;;;1.03;100.00
79703;BME280;69172;52.352;5.006;2023-12-07T04:26:32;102027.63;;;1.03;100.00
79703;BME280;69172;52.352;5.006;2023-12-07T04:28:57;102015.53;;;1.01;100.00
79703;BME280;69172;52.352;5.006;2023-12-07T04:31:23;102022.41;;;1.02;100.00
79703;BME280;69172;52.352;5.006;2023-12-07T04:33:48;102017.69;;;1.05;100.00
79703;BME280;69172;52.352;5.006;2023-12-07T04:36:14;102020.44;;;0.99;100.00
79703;BME280;69172;52.352;5.006;2023-12-07T04:38:39;102014.66;;;1.00;100.00
79703;BME280;69172;52.352;5.006;2023-12-07T04:41:05;102009.59;;;1.00;100.00
79703;BME280;69172;52.352;5.006;2023-12-07T04:43:30;102014.31;;;0.97;100.00
79703;BME280;69172;52.352;5.006;2023-12-07T04:45:56;102028.25;;;0.94;100.00
79703;BME280;69172;52.352;5.006;2023-12-07T04:48:21;102023.97;;;0.86;100.00
79703;BME280;69172;52.352;5.006;2023-12-07T04:50:46;102018.38;;;0.81;100.00
79703;BME280;69172;52.352;5.006;2023-12-07T04:53:12;102016.41;;;0.79;100.00
79703;BME280;69172;52.352;5.006;2023-12-07T04:55:37;102023.31;;;0.73;100.00
79703;BME280;69172;52.352;5.006;2023-12-07T04:58:03;102018.97;;;0.72;100.00
79703;BME280;69172;52.352;5.006;2023-12-07T05:00:28;102020.59;;;0.71;100.00
79703;BME280;69172;52.352;5.006;2023-12-07T05:02:53;102016.84;;;0.68;100.00
79703;BME280;69172;52.352;5.006;2023-12-07T05:05:19;102022.25;;;0.64;100.00
79703;BME280;69172;52.352;5.006;2023-12-07T05:07:44;102013.75;;;0.63;100.00
79703;BME280;69172;52.352;5.006;2023-12-07T05:10:09;102015.22;;;0.61;100.00
79703;BME280;69172;52.352;5.006;2023-12-07T05:12:35;102006.56;;;0.59;100.00
79703;BME280;69172;52.352;5.006;2023-12-07T05:15:01;102012.53;;;0.59;100.00
79703;BME280;69172;52.352;5.006;2023-12-07T05:17:28;102010.94;;;0.53;100.00
79703;BME280;69172;52.352;5.006;2023-12-07T05:19:57;102012.94;;;0.48;100.00
79703;BME280;69172;52.352;5.006;2023-12-07T05:22:22;102014.38;;;0.46;100.00
79703;BME280;69172;52.352;5.006;2023-12-07T05:24:48;102012.25;;;0.42;100.00
79703;BME280;69172;52.352;5.006;2023-12-07T05:27:14;102008.81;;;0.42;100.00
79703;BME280;69172;52.352;5.006;2023-12-07T05:29:39;102004.88;;;0.37;100.00
79703;BME280;69172;52.352;5.006;2023-12-07T05:32:05;102004.16;;;0.38;100.00
79703;BME280;69172;52.352;5.006;2023-12-07T05:34:31;101997.13;;;0.35;100.00
79703;BME280;69172;52.352;5.006;2023-12-07T05:36:56;101991.00;;;0.26;100.00
79703;BME280;69172;52.352;5.006;2023-12-07T05:39:21;101992.47;;;0.24;100.00
79703;BME280;69172;52.352;5.006;2023-12-07T05:41:53;101986.84;;;0.20;100.00
79703;BME280;69172;52.352;5.006;2023-12-07T05:44:19;101992.25;;;0.23;100.00
79703;BME280;69172;52.352;5.006;2023-12-07T05:46:49;101991.56;;;0.24;100.00
79703;BME280;69172;52.352;5.006;2023-12-07T05:49:14;101997.69;;;0.26;100.00
79703;BME280;69172;52.352;5.006;2023-12-07T05:51:40;101987.72;;;0.27;100.00
79703;BME280;69172;52.352;5.006;2023-12-07T05:54:05;101986.66;;;0.25;100.00
79703;BME280;69172;52.352;5.006;2023-12-07T05:56:31;101993.13;;;0.30;100.00
79703;BME280;69172;52.352;5.006;2023-12-07T05:58:57;101991.69;;;0.32;100.00
79703;BME280;69172;52.352;5.006;2023-12-07T06:01:22;101983.56;;;0.28;100.00
79703;BME280;69172;52.352;5.006;2023-12-07T06:03:49;102000.91;;;0.25;100.00
79703;BME280;69172;52.352;5.006;2023-12-07T06:06:15;101999.50;;;0.27;100.00
79703;BME280;69172;52.352;5.006;2023-12-07T06:08:40;101993.19;;;0.23;100.00
79703;BME280;69172;52.352;5.006;2023-12-07T06:11:07;101994.78;;;0.30;100.00
79703;BME280;69172;52.352;5.006;2023-12-07T06:13:32;101997.81;;;0.34;100.00
79703;BME280;69172;52.352;5.006;2023-12-07T06:15:58;102002.19;;;0.35;100.00
79703;BME280;69172;52.352;5.006;2023-12-07T06:18:24;102005.41;;;0.34;100.00
79703;BME280;69172;52.352;5.006;2023-12-07T06:20:50;102011.75;;;0.31;100.00
79703;BME280;69172;52.352;5.006;2023-12-07T06:23:15;102020.97;;;0.30;100.00
79703;BME280;69172;52.352;5.006;2023-12-07T06:25:40;102016.66;;;0.29;100.00
79703;BME280;69172;52.352;5.006;2023-12-07T06:28:07;102021.31;;;0.33;100.00
79703;BME280;69172;52.352;5.006;2023-12-07T06:30:32;102019.66;;;0.41;100.00
79703;BME280;69172;52.352;5.006;2023-12-07T06:32:57;102018.22;;;0.36;100.00
79703;BME280;69172;52.352;5.006;2023-12-07T06:35:23;102011.53;;;0.36;100.00
79703;BME280;69172;52.352;5.006;2023-12-07T06:37:48;102005.94;;;0.39;100.00
79703;BME280;69172;52.352;5.006;2023-12-07T06:40:14;102004.50;;;0.34;100.00
79703;BME280;69172;52.352;5.006;2023-12-07T06:42:39;102007.56;;;0.38;100.00
79703;BME280;69172;52.352;5.006;2023-12-07T06:45:05;102006.69;;;0.38;100.00
79703;BME280;69172;52.352;5.006;2023-12-07T06:47:35;102013.16;;;0.36;100.00
79703;BME280;69172;52.352;5.006;2023-12-07T06:50:00;102000.88;;;0.39;100.00
79703;BME280;69172;52.352;5.006;2023-12-07T06:52:28;101998.59;;;0.26;100.00
79703;BME280;69172;52.352;5.006;2023-12-07T06:54:53;101995.16;;;0.26;100.00
79703;BME280;69172;52.352;5.006;2023-12-07T06:57:21;101990.09;;;0.26;100.00
79703;BME280;69172;52.352;5.006;2023-12-07T06:59:46;101999.31;;;0.25;100.00
79703;BME280;69172;52.352;5.006;2023-12-07T07:02:12;102007.56;;;-0.20;100.00
79703;BME280;69172;52.352;5.006;2023-12-07T07:04:39;102003.97;;;-0.29;100.00
79703;BME280;69172;52.352;5.006;2023-12-07T07:07:04;102005.78;;;-0.28;100.00
79703;BME280;69172;52.352;5.006;2023-12-07T07:09:29;102005.78;;;-0.28;100.00
79703;BME280;69172;52.352;5.006;2023-12-07T07:11:57;102016.59;;;-0.29;100.00
79703;BME280;69172;52.352;5.006;2023-12-07T07:14:22;102014.28;;;-0.27;100.00
79703;BME280;69172;52.352;5.006;2023-12-07T07:16:47;102020.06;;;-0.42;100.00
79703;BME280;69172;52.352;5.006;2023-12-07T07:19:14;102010.47;;;-0.38;100.00
79703;BME280;69172;52.352;5.006;2023-12-07T07:21:42;102024.75;;;-0.38;100.00
79703;BME280;69172;52.352;5.006;2023-12-07T07:24:07;102029.81;;;-0.38;100.00
79703;BME280;69172;52.352;5.006;2023-12-07T07:26:33;102021.13;;;-0.40;100.00
79703;BME280;69172;52.352;5.006;2023-12-07T07:28:59;102017.88;;;-0.39;100.00
79703;BME280;69172;52.352;5.006;2023-12-07T07:31:24;102021.31;;;-0.46;100.00
79703;BME280;69172;52.352;5.006;2023-12-07T07:33:49;102020.44;;;-0.46;100.00
79703;BME280;69172;52.352;5.006;2023-12-07T07:36:15;102018.81;;;-0.53;100.00
79703;BME280;69172;52.352;5.006;2023-12-07T07:38:43;102016.44;;;-0.58;100.00
79703;BME280;69172;52.352;5.006;2023-12-07T07:41:09;102030.34;;;-0.55;100.00
79703;BME280;69172;52.352;5.006;2023-12-07T07:43:36;102030.72;;;-0.52;100.00
79703;BME280;69172;52.352;5.006;2023-12-07T07:46:01;102030.88;;;-0.43;100.00
79703;BME280;69172;52.352;5.006;2023-12-07T07:48:27;102029.63;;;-0.47;100.00
79703;BME280;69172;52.352;5.006;2023-12-07T07:50:55;102028.00;;;-0.46;100.00
79703;BME280;69172;52.352;5.006;2023-12-07T07:53:21;102027.28;;;-0.38;100.00
79703;BME280;69172;52.352;5.006;2023-12-07T07:55:46;102025.84;;;-0.36;100.00
79703;BME280;69172;52.352;5.006;2023-12-07T07:58:13;102027.25;;;-0.31;100.00
79703;BME280;69172;52.352;5.006;2023-12-07T08:00:38;102030.34;;;-0.34;100.00
79703;BME280;69172;52.352;5.006;2023-12-07T08:03:05;102016.06;;;-0.26;100.00
79703;BME280;69172;52.352;5.006;2023-12-07T08:05:30;102015.16;;;-0.27;100.00
79703;BME280;69172;52.352;5.006;2023-12-07T08:07:56;102005.41;;;-0.24;100.00
79703;BME280;69172;52.352;5.006;2023-12-07T08:10:22;102013.34;;;-0.21;100.00
79703;BME280;69172;52.352;5.006;2023-12-07T08:12:48;102017.84;;;-0.18;100.00
79703;BME280;69172;52.352;5.006;2023-12-07T08:15:14;102013.19;;;-0.22;100.00
79703;BME280;69172;52.352;5.006;2023-12-07T08:17:40;102014.41;;;-0.19;100.00
79703;BME280;69172;52.352;5.006;2023-12-07T08:20:08;102021.44;;;-0.16;100.00
79703;BME280;69172;52.352;5.006;2023-12-07T08:22:38;102021.13;;;-0.19;100.00
79703;BME280;69172;52.352;5.006;2023-12-07T08:25:05;102020.38;;;-0.11;100.00
79703;BME280;69172;52.352;5.006;2023-12-07T08:27:32;102021.63;;;-0.08;100.00
79703;BME280;69172;52.352;5.006;2023-12-07T08:29:58;102024.69;;;-0.03;100.00
79703;BME280;69172;52.352;5.006;2023-12-07T08:32:24;102035.34;;;0.02;100.00
79703;BME280;69172;52.352;5.006;2023-12-07T08:34:53;102026.47;;;0.05;100.00
79703;BME280;69172;52.352;5.006;2023-12-07T08:37:19;102017.25;;;0.13;100.00
79703;BME280;69172;52.352;5.006;2023-12-07T08:42:33;102008.34;;;0.23;100.00
79703;BME280;69172;52.352;5.006;2023-12-07T08:44:58;101993.94;;;0.15;100.00
79703;BME280;69172;52.352;5.006;2023-12-07T08:47:24;102001.84;;;0.25;100.00
79703;BME280;69172;52.352;5.006;2023-12-07T08:49:52;102000.50;;;0.36;100.00
79703;BME280;69172;52.352;5.006;2023-12-07T08:52:18;102004.16;;;0.38;100.00
79703;BME280;69172;52.352;5.006;2023-12-07T08:54:43;102000.72;;;0.37;100.00
79703;BME280;69172;52.352;5.006;2023-12-07T08:57:11;101996.91;;;0.34;100.00
79703;BME280;69172;52.352;5.006;2023-12-07T08:59:36;102002.13;;;0.42;100.00
79703;BME280;69172;52.352;5.006;2023-12-07T09:02:03;102000.09;;;0.47;100.00
79703;BME280;69172;52.352;5.006;2023-12-07T09:04:29;101996.66;;;0.46;100.00
79703;BME280;69172;52.352;5.006;2023-12-07T09:06:54;101997.16;;;0.58;100.00
79703;BME280;69172;52.352;5.006;2023-12-07T09:09:20;101984.72;;;0.52;100.00
79703;BME280;69172;52.352;5.006;2023-12-07T09:11:47;101984.00;;;0.53;100.00
79703;BME280;69172;52.352;5.006;2023-12-07T09:14:12;101984.56;;;0.51;100.00
79703;BME280;69172;52.352;5.006;2023-12-07T09:16:45;101989.75;;;0.59;100.00
79703;BME280;69172;52.352;5.006;2023-12-07T09:19:11;101983.44;;;0.56;100.00
79703;BME280;69172;52.352;5.006;2023-12-07T09:21:38;101980.56;;;0.53;100.00
79703;BME280;69172;52.352;5.006;2023-12-07T09:24:03;101987.50;;;0.33;100.00
79703;BME280;69172;52.352;5.006;2023-12-07T09:26:32;101986.50;;;0.24;100.00
79703;BME280;69172;52.352;5.006;2023-12-07T09:28:59;101978.84;;;0.38;100.00
79703;BME280;69172;52.352;5.006;2023-12-07T09:31:25;101992.16;;;0.44;100.00
79703;BME280;69172;52.352;5.006;2023-12-07T09:33:51;101988.88;;;0.52;100.00
79703;BME280;69172;52.352;5.006;2023-12-07T09:36:19;101991.59;;;0.53;100.00
79703;BME280;69172;52.352;5.006;2023-12-07T09:38:46;102000.09;;;0.54;100.00
79703;BME280;69172;52.352;5.006;2023-12-07T09:41:11;101999.34;;;0.55;100.00
79703;BME280;69172;52.352;5.006;2023-12-07T09:43:37;101989.75;;;0.59;100.00
79703;BME280;69172;52.352;5.006;2023-12-07T09:46:02;101988.09;;;0.67;100.00
79703;BME280;69172;52.352;5.006;2023-12-07T09:48:28;101994.88;;;0.45;100.00
79703;BME280;69172;52.352;5.006;2023-12-07T09:50:55;101991.03;;;0.56;100.00
79703;BME280;69172;52.352;5.006;2023-12-07T09:53:21;101985.75;;;0.62;100.00
79703;BME280;69172;52.352;5.006;2023-12-07T09:55:47;101992.25;;;0.67;100.00
79703;BME280;69172;52.352;5.006;2023-12-07T09:58:13;101981.06;;;0.65;100.00
79703;BME280;69172;52.352;5.006;2023-12-07T10:00:39;101977.75;;;0.73;100.00
79703;BME280;69172;52.352;5.006;2023-12-07T10:03:05;101978.38;;;0.86;100.00
79703;BME280;69172;52.352;5.006;2023-12-07T10:05:33;101971.91;;;0.81;100.00
79703;BME280;69172;52.352;5.006;2023-12-07T10:07:59;101965.88;;;0.87;100.00
79703;BME280;69172;52.352;5.006;2023-12-07T10:10:30;101950.19;;;0.83;100.00
79703;BME280;69172;52.352;5.006;2023-12-07T10:12:56;101954.09;;;0.95;100.00
79703;BME280;69172;52.352;5.006;2023-12-07T10:18:40;101941.34;;;0.79;100.00
79703;BME280;69172;52.352;5.006;2023-12-07T10:21:08;101949.47;;;0.84;100.00
79703;BME280;69172;52.352;5.006;2023-12-07T10:23:36;101957.34;;;0.94;100.00
79703;BME280;69172;52.352;5.006;2023-12-07T10:26:03;101950.09;;;0.97;100.00
79703;BME280;69172;52.352;5.006;2023-12-07T10:28:30;101941.34;;;1.02;100.00
79703;BME280;69172;52.352;5.006;2023-12-07T10:30:56;101931.38;;;1.03;100.00
79703;BME280;69172;52.352;5.006;2023-12-07T10:33:26;101932.47;;;1.05;100.00
79703;BME280;69172;52.352;5.006;2023-12-07T10:35:51;101928.91;;;0.96;100.00
79703;BME280;69172;52.352;5.006;2023-12-07T10:38:18;101929.41;;;1.01;100.00
79703;BME280;69172;52.352;5.006;2023-12-07T10:40:46;101931.91;;;1.08;100.00
79703;BME280;69172;52.352;5.006;2023-12-07T10:43:23;101930.94;;;1.14;100.00
79703;BME280;69172;52.352;5.006;2023-12-07T10:45:51;101902.72;;;1.11;100.00
79703;BME280;69172;52.352;5.006;2023-12-07T10:48:19;101910.28;;;1.18;100.00
79703;BME280;69172;52.352;5.006;2023-12-07T10:50:46;101899.09;;;1.16;100.00
79703;BME280;69172;52.352;5.006;2023-12-07T10:53:37;101904.00;;;1.31;100.00
79703;BME280;69172;52.352;5.006;2023-12-07T10:56:33;101917.91;;;1.34;100.00
79703;BME280;69172;52.352;5.006;2023-12-07T10:58:57;101897.63;;;1.18;100.00
79703;BME280;69172;52.352;5.006;2023-12-07T11:01:39;101906.72;;;1.32;100.00
79703;BME280;69172;52.352;5.006;2023-12-07T11:04:06;101901.00;;;1.42;100.00
79703;BME280;69172;52.352;5.006;2023-12-07T11:06:34;101891.44;;;1.39;100.00
79703;BME280;69172;52.352;5.006;2023-12-07T11:09:04;101879.59;;;1.47;100.00
79703;BME280;69172;52.352;5.006;2023-12-07T11:11:52;101883.91;;;1.48;100.00
79703;BME280;69172;52.352;5.006;2023-12-07T11:14:21;101871.16;;;1.39;100.00
79703;BME280;69172;52.352;5.006;2023-12-07T11:16:47;101887.22;;;1.47;100.00
79703;BME280;69172;52.352;5.006;2023-12-07T11:22:06;101860.19;;;1.47;100.00
79703;BME280;69172;52.352;5.006;2023-12-07T11:24:31;101871.19;;;1.55;100.00
79703;BME280;69172;52.352;5.006;2023-12-07T11:26:57;101869.38;;;1.54;100.00
79703;BME280;69172;52.352;5.006;2023-12-07T11:29:28;101863.81;;;1.49;100.00
79703;BME280;69172;52.352;5.006;2023-12-07T11:32:01;101858.09;;;1.59;100.00
79703;BME280;69172;52.352;5.006;2023-12-07T11:34:44;101858.25;;;1.45;100.00
79703;BME280;69172;52.352;5.006;2023-12-07T11:37:13;101851.78;;;1.40;100.00
79703;BME280;69172;52.352;5.006;2023-12-07T11:39:40;101858.47;;;1.39;100.00
79703;BME280;69172;52.352;5.006;2023-12-07T11:42:11;101859.25;;;1.38;100.00
79703;BME280;69172;52.352;5.006;2023-12-07T11:44:42;101854.66;;;1.43;100.00
79703;BME280;69172;52.352;5.006;2023-12-07T11:47:08;101852.50;;;1.39;100.00
79703;BME280;69172;52.352;5.006;2023-12-07T11:49:34;101853.41;;;1.39;100.00
79703;BME280;69172;52.352;5.006;2023-12-07T11:52:00;101850.78;;;1.31;100.00
79703;BME280;69172;52.352;5.006;2023-12-07T11:54:27;101839.44;;;1.27;100.00
79703;BME280;69172;52.352;5.006;2023-12-07T11:56:56;101838.19;;;1.39;100.00
79703;BME280;69172;52.352;5.006;2023-12-07T11:59:24;101837.63;;;1.42;100.00
79703;BME280;69172;52.352;5.006;2023-12-07T12:01:52;101834.94;;;1.40;100.00
79703;BME280;69172;52.352;5.006;2023-12-07T12:04:21;101827.69;;;1.43;100.00
79703;BME280;69172;52.352;5.006;2023-12-07T12:06:47;101822.38;;;1.49;100.00
79703;BME280;69172;52.352;5.006;2023-12-07T12:09:15;101806.16;;;1.40;100.00
79703;BME280;69172;52.352;5.006;2023-12-07T12:11:47;101815.25;;;1.53;100.00
79703;BME280;69172;52.352;5.006;2023-12-07T12:14:16;101815.41;;;1.55;100.00
79703;BME280;69172;52.352;5.006;2023-12-07T12:16:43;101808.03;;;1.65;100.00
79703;BME280;69172;52.352;5.006;2023-12-07T12:19:10;101797.72;;;1.63;100.00
79703;BME280;69172;52.352;5.006;2023-12-07T12:21:36;101791.34;;;1.67;100.00
79703;BME280;69172;52.352;5.006;2023-12-07T12:24:07;101796.41;;;1.67;100.00
79703;BME280;69172;52.352;5.006;2023-12-07T12:26:34;101790.53;;;1.59;100.00
79703;BME280;69172;52.352;5.006;2023-12-07T12:29:02;101782.47;;;1.55;100.00
79703;BME280;69172;52.352;5.006;2023-12-07T12:31:28;101780.06;;;1.56;100.00
79703;BME280;69172;52.352;5.006;2023-12-07T12:33:54;101772.81;;;1.59;100.00
79703;BME280;69172;52.352;5.006;2023-12-07T12:36:21;101763.63;;;1.53;100.00
79703;BME280;69172;52.352;5.006;2023-12-07T12:38:53;101754.25;;;1.52;100.00
79703;BME280;69172;52.352;5.006;2023-12-07T12:41:22;101743.03;;;1.50;100.00
79703;BME280;69172;52.352;5.006;2023-12-07T12:44:04;101744.44;;;1.55;100.00
79703;BME280;69172;52.352;5.006;2023-12-07T12:46:31;101742.31;;;1.51;100.00
79703;BME280;69172;52.352;5.006;2023-12-07T12:49:01;101730.94;;;1.63;100.00
79703;BME280;69172;52.352;5.006;2023-12-07T12:51:30;101720.16;;;1.57;100.00
79703;BME280;69172;52.352;5.006;2023-12-07T12:54:00;101722.75;;;1.65;100.00
79703;BME280;69172;52.352;5.006;2023-12-07T12:56:26;101724.38;;;1.65;100.00
79703;BME280;69172;52.352;5.006;2023-12-07T12:58:53;101717.09;;;1.68;100.00